Time;durP1;ratioP1;P1;durP2;ratioP2;P2;SDS_P1;SDS_P2;PMS_P1;PMS_P2;Temp;Humidity;BMP_temperature;BMP_pressure;BME280_temperature;BME280_humidity;BME280_pressure;Samples;Min_cycle;Max_cycle;Signal;HPM_P1;HPM_P2
2021/04/17 00:02:45;;;;;;;23.90;16.13;;;;;;;4.39;82.24;100052.59;234555;1176;115575;-65
2021/04/17 00:07:48;;;;;;;26.73;18.03;;;;;;;4.36;82.74;100044.22;234289;1175;115695;-66
2021/04/17 00:12:50;;;;;;;23.90;15.97;;;;;;;4.40;82.23;100038.38;235213;1176;116079;-65
2021/04/17 00:17:53;;;;;;;24.90;17.47;;;;;;;4.45;82.33;100042.29;235198;1175;117122;-67
2021/04/17 00:22:57;;;;;;;26.43;19.23;;;;;;;4.45;82.09;100035.19;234373;1174;116554;-66
2021/04/17 00:28:00;;;;;;;23.23;18.00;;;;;;;4.51;81.62;100030.98;233593;1176;116504;-65
2021/04/17 00:33:07;;;;;;;29.98;19.00;;;;;;;4.53;82.28;100023.70;233019;1171;115423;-65
2021/04/17 00:38:11;;;;;;;27.87;19.07;;;;;;;4.50;82.36;100026.71;233609;1174;115921;-65
2021/04/17 00:43:15;;;;;;;34.53;20.48;;;;;;;4.46;81.89;100031.55;233415;1174;117899;-65
2021/04/17 00:48:19;;;;;;;26.53;19.20;;;;;;;4.46;81.79;100033.37;232973;1168;118556;-64
2021/04/17 00:53:24;;;;;;;29.05;20.60;;;;;;;4.46;81.83;100039.47;233047;1174;116058;-65
2021/04/17 00:58:27;;;;;;;25.95;19.20;;;;;;;4.45;82.07;100039.65;232447;1174;116197;-63
2021/04/17 01:03:44;;;;;;;26.70;19.30;;;;;;;4.48;82.03;100028.72;233237;1174;115693;-63
2021/04/17 01:09:03;;;;;;;38.60;20.20;;;;;;;4.46;82.52;100034.19;232796;1174;116276;-64
2021/04/17 01:14:08;;;;;;;28.65;17.73;;;;;;;4.44;82.82;100040.66;232702;1174;116495;-65
2021/04/17 01:19:17;;;;;;;29.05;20.30;;;;;;;4.49;82.18;100035.63;233734;1174;115970;-66
2021/04/17 01:24:26;;;;;;;34.10;19.47;;;;;;;4.49;82.05;100039.09;232605;1174;116225;-65
2021/04/17 01:29:30;;;;;;;34.77;20.50;;;;;;;4.51;82.68;100030.98;232603;1175;115160;-64
2021/04/17 01:34:34;;;;;;;34.00;20.05;;;;;;;4.45;82.60;100031.73;233413;1175;116370;-64
2021/04/17 01:39:39;;;;;;;31.33;18.73;;;;;;;4.50;82.26;100038.09;233839;1176;115509;-68
2021/04/17 01:44:48;;;;;;;;;;;;;;;4.48;82.54;100032.17;232616;1176;115620;-65
2021/04/17 01:49:53;;;;;;;24.43;18.43;;;;;;;4.40;82.21;100032.29;234547;1174;103111;-65
2021/04/17 01:54:59;;;;;;;30.58;20.68;;;;;;;4.43;82.05;100033.73;233924;1174;115159;-65
2021/04/17 02:00:05;;;;;;;29.00;19.23;;;;;;;4.43;81.96;100037.20;232644;1175;115756;-65
2021/04/17 02:05:10;;;;;;;29.63;19.13;;;;;;;4.40;82.68;100032.29;233471;1175;115603;-65
2021/04/17 02:10:13;;;;;;;22.70;16.70;;;;;;;4.34;82.27;100025.93;234096;1174;116210;-66
2021/04/17 02:15:16;;;;;;;20.97;16.90;;;;;;;4.39;81.98;100020.91;234927;1176;115416;-66
2021/04/17 02:20:43;;;;;;;26.53;18.30;;;;;;;4.40;82.40;100027.83;235050;1176;115830;-65
2021/04/17 02:25:51;;;;;;;28.40;17.00;;;;;;;4.42;82.01;100021.55;234995;1174;117658;-67
2021/04/17 02:30:56;;;;;;;25.25;16.85;;;;;;;4.48;82.19;100020.80;233825;1175;114844;-66
2021/04/17 02:36:01;;;;;;;23.23;16.15;;;;;;;4.49;81.74;100017.16;234107;1174;115176;-66
2021/04/17 02:41:04;;;;;;;29.73;20.23;;;;;;;4.43;82.65;100010.80;234035;1174;115549;-66
2021/04/17 02:46:09;;;;;;;31.03;20.33;;;;;;;4.45;81.65;100026.45;232720;1174;116270;-66
2021/04/17 02:51:13;;;;;;;25.28;19.10;;;;;;;4.46;82.03;100023.63;232618;1174;118230;-65
2021/04/17 02:56:16;;;;;;;33.50;19.40;;;;;;;4.48;82.31;100020.80;232697;1174;115837;-64
2021/04/17 03:01:19;;;;;;;26.48;19.70;;;;;;;4.47;81.85;100017.34;232868;1176;118452;-63
2021/04/17 03:06:23;;;;;;;31.35;17.25;;;;;;;4.47;82.05;100019.16;232614;1174;116584;-64
2021/04/17 03:11:27;;;;;;;31.57;18.57;;;;;;;4.44;82.33;100020.36;232657;1174;117809;-64
2021/04/17 03:16:32;;;;;;;28.40;18.00;;;;;;;4.40;82.65;100025.19;233010;1176;116240;-65
2021/04/17 03:21:35;;;;;;;28.83;18.98;;;;;;;4.42;81.95;100021.55;232520;1174;116732;-66
2021/04/17 03:26:39;;;;;;;33.48;19.88;;;;;;;4.44;82.96;100024.81;232768;1174;115530;-65
2021/04/17 03:31:44;;;;;;;25.17;17.20;;;;;;;4.44;82.49;100030.09;232929;1174;115577;-65
2021/04/17 03:36:49;;;;;;;25.83;17.25;;;;;;;4.48;82.71;100031.36;232567;1174;116459;-65
2021/04/17 03:41:52;;;;;;;31.70;18.88;;;;;;;4.47;82.63;100037.64;232632;1175;116525;-65
2021/04/17 03:46:56;;;;;;;23.55;18.40;;;;;;;4.38;82.64;100035.11;232807;1176;116250;-64
2021/04/17 03:51:59;;;;;;;32.37;22.23;;;;;;;4.34;82.54;100041.77;233495;1174;115913;-65
2021/04/17 03:57:04;;;;;;;37.00;19.45;;;;;;;4.38;82.75;100044.86;232626;1176;117612;-65
2021/04/17 04:02:07;;;;;;;32.20;19.33;;;;;;;4.33;82.53;100034.85;232415;1175;116533;-65
2021/04/17 04:07:10;;;;;;;36.23;20.87;;;;;;;4.33;82.72;100032.21;234175;1167;116072;-65
2021/04/17 04:12:14;;;;;;;29.38;18.35;;;;;;;4.40;82.34;100034.93;234187;1176;115735;-66
2021/04/17 04:17:17;;;;;;;31.75;20.05;;;;;;;4.41;82.58;100031.28;234131;1175;115659;-66
2021/04/17 04:22:21;;;;;;;34.78;21.43;;;;;;;4.40;82.21;100030.47;235026;1175;115244;-64
2021/04/17 04:27:26;;;;;;;28.40;19.07;;;;;;;4.49;82.81;100043.55;234046;1175;116365;-66
2021/04/17 04:32:30;;;;;;;22.53;19.90;;;;;;;4.51;82.97;100041.55;234973;1174;116324;-68
2021/04/17 04:37:35;;;;;;;26.43;16.20;;;;;;;4.52;81.96;100041.36;234187;1176;116695;-69
2021/04/17 04:42:38;;;;;;;29.97;16.80;;;;;;;4.57;82.52;100035.52;233527;1174;115911;-68
2021/04/17 04:47:43;;;;;;;22.70;17.90;;;;;;;4.57;82.56;100051.36;232929;1176;116015;-67
2021/04/17 04:52:48;;;;;;;21.07;15.63;;;;;;;4.54;82.74;100051.73;232371;1174;117424;-68
2021/04/17 04:57:52;;;;;;;23.00;18.10;;;;;;;4.55;82.62;100048.91;233945;1175;115413;-68
2021/04/17 05:02:56;;;;;;;25.40;14.80;;;;;;;4.57;83.12;100052.18;232704;1176;115783;-67
2021/04/17 05:08:00;;;;;;;19.30;15.00;;;;;;;4.60;83.05;100056.23;232686;1174;115951;-68
2021/04/17 05:13:03;;;;;;;22.65;16.73;;;;;;;4.59;83.00;100054.60;232537;1174;115788;-67
2021/04/17 05:18:07;;;;;;;23.73;15.98;;;;;;;4.60;82.08;100056.23;232814;1176;117079;-68
2021/04/17 05:23:11;;;;;;;19.98;14.03;;;;;;;4.59;83.02;100049.32;232525;1175;115880;-68
2021/04/17 05:28:14;;;;;;;14.83;12.73;;;;;;;4.55;82.96;100050.73;232769;1177;116664;-68
2021/04/17 05:33:18;;;;;;;20.83;15.67;;;;;;;4.57;82.60;100048.72;232997;1176;115877;-65
2021/04/17 05:38:25;;;;;;;20.27;16.50;;;;;;;4.56;82.19;100050.55;232514;1176;118342;-65
2021/04/17 05:43:29;;;;;;;19.73;15.13;;;;;;;4.57;83.27;100046.08;232628;1175;117561;-63
2021/04/17 05:48:32;;;;;;;20.58;16.68;;;;;;;4.65;83.04;100067.05;233401;1174;116747;-64
2021/04/17 05:53:38;;;;;;;15.53;13.57;;;;;;;4.65;82.87;100056.49;232456;1176;116621;-65
2021/04/17 05:58:42;;;;;;;18.78;14.58;;;;;;;4.61;82.52;100055.23;232629;1176;116515;-63
2021/04/17 06:03:45;;;;;;;19.25;14.90;;;;;;;4.56;82.52;100057.64;233526;1175;116887;-64
2021/04/17 06:08:49;;;;;;;22.53;16.40;;;;;;;4.62;82.78;100057.69;233091;1176;116546;-65
2021/04/17 06:13:52;;;;;;;23.13;14.93;;;;;;;4.57;83.04;100061.92;232679;1176;117337;-64
2021/04/17 06:18:55;;;;;;;19.75;16.80;;;;;;;4.52;82.76;100059.84;234643;1174;115653;-65
2021/04/17 06:23:59;;;;;;;22.67;17.37;;;;;;;4.64;82.69;100054.86;234866;1174;116246;-65
2021/04/17 06:29:03;;;;;;;19.80;14.95;;;;;;;4.76;83.00;100055.19;233528;1174;116907;-65
2021/04/17 06:34:07;;;;;;;19.13;15.40;;;;;;;4.84;82.90;100063.80;235178;1176;115555;-64
2021/04/17 06:39:11;;;;;;;19.30;15.90;;;;;;;5.04;82.81;100069.25;235184;1176;117612;-64
2021/04/17 06:44:16;;;;;;;20.77;16.23;;;;;;;5.17;82.49;100068.55;232772;1167;117873;-65
2021/04/17 06:49:21;;;;;;;22.10;16.25;;;;;;;5.18;82.63;100065.72;232685;1174;117309;-66
2021/04/17 06:54:27;;;;;;;18.88;14.68;;;;;;;5.23;82.62;100062.48;233345;1174;116460;-66
2021/04/17 06:59:33;;;;;;;18.20;15.25;;;;;;;5.25;82.27;100063.92;232508;1175;116561;-66
2021/04/17 07:04:38;;;;;;;21.95;16.60;;;;;;;5.27;82.48;100063.73;232770;1175;116070;-66
2021/04/17 07:09:44;;;;;;;23.80;19.23;;;;;;;5.31;82.34;100070.27;233574;1176;116719;-65
2021/04/17 07:14:53;;;;;;;21.05;14.80;;;;;;;5.37;82.33;100072.97;232890;1174;116110;-65
2021/04/17 07:20:00;;;;;;;15.00;12.33;;;;;;;5.46;82.73;100065.72;232735;1174;115977;-65
2021/04/17 07:25:07;;;;;;;17.80;13.00;;;;;;;5.50;82.32;100069.61;232472;1174;115787;-65
2021/04/17 07:30:22;;;;;;;23.20;15.90;;;;;;;5.62;82.66;100064.58;232655;1174;117079;-67
2021/04/17 07:35:26;;;;;;;19.45;13.18;;;;;;;5.80;82.43;100066.73;232557;1176;115878;-64
2021/04/17 07:40:29;;;;;;;14.85;11.60;;;;;;;5.78;82.04;100088.09;232756;1174;115550;-65
2021/04/17 07:45:36;;;;;;;14.93;12.58;;;;;;;5.70;82.27;100086.41;232803;1174;115425;-66
2021/04/17 07:50:42;;;;;;;18.73;15.03;;;;;;;5.79;82.31;100086.26;232467;1176;115509;-67
2021/04/17 07:55:45;;;;;;;17.98;14.98;;;;;;;5.92;82.25;100083.70;232498;1175;115695;-67
2021/04/17 08:00:51;;;;;;;16.33;13.15;;;;;;;5.99;81.84;100085.38;233279;1174;115187;-66
2021/04/17 08:05:56;;;;;;;24.70;15.50;;;;;;;5.94;82.26;100089.61;232439;1174;116401;-66
2021/04/17 08:11:01;;;;;;;20.70;14.95;;;;;;;5.94;81.66;100089.61;232588;1171;115854;-65
2021/04/17 08:16:10;;;;;;;21.63;15.23;;;;;;;5.91;82.02;100097.94;233863;1170;115579;-65
2021/04/17 08:21:17;;;;;;;26.35;13.85;;;;;;;5.86;81.77;100110.90;232793;1170;115939;-63
2021/04/17 08:26:21;;;;;;;19.87;13.17;;;;;;;5.86;82.14;100102.96;233285;1174;116476;-64
2021/04/17 08:31:30;;;;;;;24.45;19.55;;;;;;;5.93;81.98;100098.56;233975;1174;115549;-66
2021/04/17 08:36:35;;;;;;;28.15;17.40;;;;;;;6.00;81.75;100102.06;235027;1174;115458;-66
2021/04/17 08:41:59;;;;;;;25.07;16.67;;;;;;;6.04;81.70;100098.02;235021;1175;115647;-65
2021/04/17 08:47:05;;;;;;;22.90;14.00;;;;;;;6.05;81.80;100103.12;233947;1175;115033;-65
2021/04/17 08:52:24;;;;;;;22.50;16.30;;;;;;;6.15;81.65;100107.21;234618;1175;116067;-65
2021/04/17 08:57:27;;;;;;;22.80;15.83;;;;;;;6.24;81.88;100106.86;233172;1176;116561;-65
2021/04/17 09:02:42;;;;;;;22.93;15.95;;;;;;;6.23;81.65;100109.70;233989;1174;116711;-64
2021/04/17 09:07:47;;;;;;;24.10;16.40;;;;;;;6.20;81.68;100108.26;233986;1174;116727;-66
2021/04/17 09:13:11;;;;;;;26.13;17.88;;;;;;;6.29;81.40;100101.79;233920;1176;116791;-65
2021/04/17 09:18:37;;;;;;;28.50;17.80;;;;;;;6.38;81.58;100100.61;233251;1175;116099;-65
2021/04/17 09:23:53;;;;;;;25.65;17.43;;;;;;;6.37;81.29;100108.75;232611;1174;117003;-65
2021/04/17 09:29:01;;;;;;;23.53;17.10;;;;;;;6.36;81.39;100113.23;232775;1174;116341;-65
2021/04/17 09:34:06;;;;;;;28.98;17.65;;;;;;;6.40;81.28;100113.66;232420;1174;116356;-65
2021/04/17 09:39:45;;;;;;;30.30;19.87;;;;;;;6.49;81.56;100107.14;232775;1174;116287;-63
2021/04/17 09:44:50;;;;;;;29.40;20.17;;;;;;;6.52;81.36;100108.58;232516;1177;116550;-65
2021/04/17 09:49:56;;;;;;;28.37;19.17;;;;;;;6.55;80.98;100110.84;232555;1176;116771;-68
2021/04/17 09:55:05;;;;;;;36.35;22.48;;;;;;;6.60;81.00;100109.23;232992;1174;116109;-65
2021/04/17 10:00:10;;;;;;;37.28;21.00;;;;;;;6.67;81.21;100106.60;232495;1174;116135;-66
2021/04/17 10:05:16;;;;;;;32.85;21.60;;;;;;;6.65;81.26;100117.39;232957;1175;116674;-67
2021/04/17 10:10:20;;;;;;;30.23;20.10;;;;;;;6.63;81.27;100110.66;232471;1175;116735;-66
2021/04/17 10:15:26;;;;;;;44.60;25.23;;;;;;;6.66;80.94;100111.08;232602;1174;116546;-65
2021/04/17 10:20:32;;;;;;;36.37;22.10;;;;;;;6.80;81.18;100109.27;233410;1175;116023;-63
2021/04/17 10:25:47;;;;;;;36.20;22.73;;;;;;;6.91;81.55;100113.16;233642;1174;115878;-64
2021/04/17 10:31:00;;;;;;;35.20;21.45;;;;;;;6.94;80.78;100112.77;233176;1176;115925;-64
2021/04/17 10:36:19;;;;;;;37.83;22.93;;;;;;;7.01;81.01;100109.11;234345;1176;116579;-65
2021/04/17 10:41:28;;;;;;;34.60;22.40;;;;;;;7.07;80.71;100105.63;232491;1169;117141;-63
2021/04/17 10:46:43;;;;;;;42.30;24.10;;;;;;;7.01;80.12;100109.11;232572;1174;117184;-64
2021/04/17 10:51:47;;;;;;;32.38;16.25;;;;;;;6.95;80.24;100115.21;234849;1167;115961;-65
2021/04/17 10:57:07;;;;;;;31.60;19.90;;;;;;;6.96;80.48;100123.98;233866;1177;116348;-64
2021/04/17 11:02:12;;;;;;;26.78;17.53;;;;;;;6.92;80.60;100120.09;233821;1175;117227;-64
2021/04/17 11:07:16;;;;;;;37.33;24.73;;;;;;;6.96;81.10;100127.45;232596;1174;117855;-65
2021/04/17 11:12:25;;;;;;;39.30;21.23;;;;;;;7.00;80.81;100128.69;233668;1175;116486;-65
2021/04/17 11:17:29;;;;;;;40.30;23.20;;;;;;;7.06;80.95;100129.69;232462;1175;116980;-65
2021/04/17 11:22:35;;;;;;;32.07;22.20;;;;;;;7.00;80.65;100135.81;232961;1175;116709;-66
2021/04/17 11:27:38;;;;;;;32.15;20.25;;;;;;;6.99;81.19;100129.70;233364;1176;116238;-66
2021/04/17 11:32:41;;;;;;;48.00;24.40;;;;;;;7.06;80.47;100129.69;232417;1174;116292;-66
2021/04/17 11:37:46;;;;;;;46.30;26.53;;;;;;;7.18;81.20;100129.91;232538;1174;115876;-65
2021/04/17 11:42:49;;;;;;;57.40;29.80;;;;;;;7.23;81.52;100130.94;232452;1175;116450;-66
2021/04/17 11:47:53;;;;;;;49.15;29.30;;;;;;;7.35;81.59;100134.59;233536;1171;117105;-66
2021/04/17 11:52:57;;;;;;;42.88;24.58;;;;;;;7.56;81.24;100132.77;232582;1174;115792;-66
2021/04/17 11:58:00;;;;;;;34.50;21.30;;;;;;;7.65;80.65;100127.03;232649;1175;116806;-66
2021/04/17 12:03:03;;;;;;;48.95;23.65;;;;;;;7.68;80.80;100131.11;234026;1176;115267;-66
2021/04/17 12:08:06;;;;;;;38.90;23.05;;;;;;;7.64;79.77;100135.23;232414;1174;116414;-66
2021/04/17 12:13:08;;;;;;;38.57;23.23;;;;;;;7.63;79.86;100134.41;232887;1175;115830;-67
2021/04/17 12:18:11;;;;;;;49.53;26.00;;;;;;;7.59;81.09;100142.98;233082;1170;115940;-67
2021/04/17 12:23:14;;;;;;;34.85;21.05;;;;;;;7.58;80.42;100149.31;233844;1174;115838;-65
2021/04/17 12:28:20;;;;;;;41.03;22.88;;;;;;;7.59;81.00;100159.72;234219;1174;119826;-65
2021/04/17 12:33:23;;;;;;;33.38;22.23;;;;;;;7.57;79.99;100159.10;233429;1174;115778;-66
2021/04/17 12:38:26;;;;;;;32.88;20.55;;;;;;;7.52;80.33;100158.08;233322;1175;117042;-63
2021/04/17 12:43:29;;;;;;;43.28;24.25;;;;;;;7.53;79.96;100163.18;235085;1175;118319;-64
2021/04/17 12:48:32;;;;;;;39.15;25.33;;;;;;;7.58;80.65;100163.39;233680;1176;115911;-64
2021/04/17 12:53:35;;;;;;;43.23;25.45;;;;;;;7.65;80.14;100166.83;234450;1174;116405;-64
2021/04/17 12:58:39;;;;;;;42.47;27.17;;;;;;;7.68;80.53;100168.27;233923;1167;116583;-64
2021/04/17 13:03:41;;;;;;;50.63;23.10;;;;;;;7.78;81.09;100166.83;233165;1175;116296;-64
2021/04/17 13:08:45;;;;;;;39.53;22.00;;;;;;;7.81;80.96;100168.27;232837;1174;116341;-64
2021/04/17 13:13:47;;;;;;;42.57;24.60;;;;;;;7.79;80.90;100165.00;232379;1176;117392;-66
2021/04/17 13:18:50;;;;;;;32.23;18.63;;;;;;;7.78;80.47;100166.02;232794;1176;117233;-65
2021/04/17 13:23:53;;;;;;;47.30;25.00;;;;;;;7.69;79.94;100157.44;233532;1176;117564;-66
2021/04/17 13:28:56;;;;;;;59.33;28.25;;;;;;;7.72;81.34;100161.52;233224;1176;117366;-64
2021/04/17 13:33:59;;;;;;;51.15;28.70;;;;;;;7.71;80.41;100159.89;233257;1176;117265;-65
2021/04/17 13:39:03;;;;;;;49.17;27.90;;;;;;;7.77;80.54;100146.63;233122;1175;116905;-64
2021/04/17 13:44:10;;;;;;;42.78;25.20;;;;;;;7.83;80.97;100146.83;232604;1175;115667;-65
2021/04/17 13:49:14;;;;;;;61.90;32.13;;;;;;;7.86;80.63;100159.69;232452;1175;115637;-64
2021/04/17 13:54:17;;;;;;;40.80;21.93;;;;;;;7.81;80.86;100148.87;232882;1176;115263;-64
2021/04/17 13:59:19;;;;;;;54.63;30.63;;;;;;;7.83;80.41;100163.56;233621;1176;115823;-63
2021/04/17 14:04:22;;;;;;;58.93;29.53;;;;;;;7.91;80.22;100162.54;233034;1174;115549;-64
2021/04/17 14:09:25;;;;;;;55.05;31.25;;;;;;;7.94;80.92;100159.48;233861;1174;115074;-66
2021/04/17 14:14:28;;;;;;;53.63;32.55;;;;;;;7.97;81.33;100159.03;233184;1174;115589;-64
2021/04/17 14:19:30;;;;;;;59.85;32.45;;;;;;;8.07;80.96;100154.94;233883;1174;115392;-65
2021/04/17 14:24:34;;;;;;;60.17;31.20;;;;;;;8.14;80.54;100160.23;232600;1175;116596;-63
2021/04/17 14:29:36;;;;;;;41.28;23.90;;;;;;;8.15;80.87;100155.74;233117;1174;116485;-64
2021/04/17 14:34:38;;;;;;;60.10;29.80;;;;;;;8.20;81.26;100162.06;234982;1176;117396;-66
2021/04/17 14:39:41;;;;;;;50.73;31.03;;;;;;;8.23;80.08;100156.34;235175;1176;117583;-65
2021/04/17 14:44:43;;;;;;;52.13;30.20;;;;;;;8.14;80.04;100157.58;235182;1174;116238;-64
2021/04/17 14:50:06;;;;;;;51.85;26.60;;;;;;;8.18;80.87;100161.45;235040;1176;116363;-65
2021/04/17 14:55:10;;;;;;;57.78;28.48;;;;;;;8.32;79.81;100157.75;234887;1176;116857;-64
2021/04/17 15:00:13;;;;;;;48.40;25.63;;;;;;;8.44;80.50;100141.98;233295;1175;117323;-64
2021/04/17 15:05:17;;;;;;;52.90;31.35;;;;;;;8.48;80.01;100139.72;234435;1174;115446;-65
2021/04/17 15:10:20;;;;;;;54.53;29.00;;;;;;;8.51;80.52;100141.96;234347;1174;115572;-65
2021/04/17 15:15:23;;;;;;;58.13;31.08;;;;;;;8.44;80.79;100142.80;233597;1175;115898;-66
2021/04/17 15:20:31;;;;;;;57.35;30.75;;;;;;;8.40;79.96;100135.45;233047;1167;116451;-66
2021/04/17 15:25:49;;;;;;;56.15;29.08;;;;;;;8.37;79.51;100138.53;232564;1176;115482;-65
2021/04/17 15:30:52;;;;;;;57.83;30.47;;;;;;;8.31;80.84;100150.77;233041;1175;117712;-66
2021/04/17 15:35:55;;;;;;;59.25;32.60;;;;;;;8.27;80.82;100148.73;232771;1176;116219;-64
2021/04/17 15:41:04;;;;;;;62.07;31.37;;;;;;;8.19;80.59;100146.34;232347;1175;116875;-64
2021/04/17 15:46:10;;;;;;;61.23;32.10;;;;;;;8.19;80.44;100152.47;233730;1174;117333;-65
2021/04/17 15:51:15;;;;;;;50.65;27.40;;;;;;;8.14;80.80;100146.96;232946;1176;117336;-66
2021/04/17 15:56:20;;;;;;;61.87;31.47;;;;;;;8.05;80.90;100146.36;233024;1176;117245;-67
2021/04/17 16:17:31;;;;;;;59.70;33.20;;;;;;;8.03;80.44;100147.59;233193;1176;115734;-66
2021/04/17 16:22:38;;;;;;;77.98;31.00;;;;;;;7.99;80.58;100141.06;233365;1174;116515;-65
2021/04/17 16:27:41;;;;;;;60.60;30.35;;;;;;;8.02;80.71;100133.50;233575;1175;116520;-64
2021/04/17 16:32:44;;;;;;;59.38;31.38;;;;;;;8.08;81.32;100137.98;234539;1167;116072;-64
2021/04/17 16:37:47;;;;;;;55.93;29.80;;;;;;;8.02;81.14;100136.16;233271;1174;116431;-65
2021/04/17 16:42:50;;;;;;;64.55;31.45;;;;;;;8.01;80.76;100131.05;235005;1175;115594;-64
2021/04/17 16:47:53;;;;;;;64.53;30.60;;;;;;;8.07;80.86;100138.19;234936;1176;115956;-64
2021/04/17 16:52:56;;;;;;;68.70;32.37;;;;;;;8.11;80.80;100137.56;235047;1174;116544;-66
2021/04/17 16:57:59;;;;;;;53.25;29.75;;;;;;;8.11;80.61;100137.56;233997;1174;115716;-66
2021/04/17 17:03:02;;;;;;;62.80;29.30;;;;;;;8.11;80.58;100144.72;233322;1176;116055;-65
2021/04/17 17:08:05;;;;;;;67.68;31.45;;;;;;;8.08;81.02;100147.79;232936;1175;115447;-63
2021/04/17 17:13:11;;;;;;;62.70;31.20;;;;;;;8.01;81.43;100144.33;233235;1174;115757;-66
2021/04/17 17:18:13;;;;;;;66.13;31.53;;;;;;;8.00;80.85;100153.31;232557;1174;115822;-68
2021/04/17 17:23:16;;;;;;;69.43;31.95;;;;;;;7.93;80.68;100160.50;233106;1174;115478;-66
2021/04/17 17:28:19;;;;;;;63.08;31.20;;;;;;;7.93;81.27;100163.97;232359;1174;116127;-67
2021/04/17 17:33:22;;;;;;;65.55;29.75;;;;;;;7.93;81.41;100165.80;232471;1175;115784;-65
2021/04/17 17:38:26;;;;;;;69.37;31.33;;;;;;;7.88;80.90;100170.91;232399;1174;116289;-66
2021/04/17 17:43:31;;;;;;;66.98;31.20;;;;;;;7.78;80.71;100176.63;233430;1174;116035;-69
2021/04/17 17:48:45;;;;;;;62.63;28.47;;;;;;;7.75;80.62;100183.16;233188;1175;116401;-65
2021/04/17 17:53:47;;;;;;;67.30;33.43;;;;;;;7.78;81.12;100192.55;232435;1174;115185;-65
2021/04/17 17:58:50;;;;;;;75.80;33.95;;;;;;;7.76;81.81;100189.29;232804;1175;115501;-66
2021/04/17 18:03:53;;;;;;;83.37;38.43;;;;;;;7.74;81.02;100207.25;233704;1174;116442;-65
2021/04/17 18:08:56;;;;;;;87.05;44.38;;;;;;;7.71;81.40;100208.47;232355;1175;115194;-68
2021/04/17 18:13:59;;;;;;;77.30;37.78;;;;;;;7.67;81.72;100207.25;232364;1176;116284;-67
2021/04/17 18:19:02;;;;;;;75.40;35.40;;;;;;;7.69;81.80;100205.20;232136;1176;115475;-65
2021/04/17 18:24:05;;;;;;;75.35;37.30;;;;;;;7.68;82.14;100221.33;233920;1176;116086;-65
2021/04/17 18:29:08;;;;;;;70.90;35.73;;;;;;;7.65;81.30;100217.24;233349;1174;116680;-67
2021/04/17 18:34:10;;;;;;;80.20;36.50;;;;;;;7.64;81.73;100215.61;233146;1175;116087;-67
2021/04/17 18:39:13;;;;;;;70.13;32.35;;;;;;;7.65;81.51;100219.89;233087;1174;115176;-66
2021/04/17 18:44:16;;;;;;;65.03;33.67;;;;;;;7.62;81.33;100220.33;234696;1175;115509;-68
2021/04/17 18:49:19;;;;;;;57.50;33.07;;;;;;;7.68;81.61;100221.33;233351;1175;116552;-68
2021/04/17 18:54:23;;;;;;;77.18;35.43;;;;;;;7.77;82.16;100226.23;233915;1175;115566;-69
2021/04/17 18:59:26;;;;;;;74.70;37.47;;;;;;;7.80;81.65;100226.85;233966;1174;116110;-65
2021/04/17 19:04:29;;;;;;;67.38;34.48;;;;;;;7.78;81.16;100222.56;234056;1174;115470;-68
2021/04/17 19:09:34;;;;;;;62.30;33.55;;;;;;;7.71;81.61;100220.92;232338;1175;116074;-65
2021/04/17 19:14:37;;;;;;;83.67;33.20;;;;;;;7.68;81.51;100218.67;233171;1174;116437;-64
2021/04/17 19:19:43;;;;;;;58.60;30.53;;;;;;;7.61;81.79;100213.39;232313;1174;115338;-65
2021/04/17 19:24:46;;;;;;;64.25;30.10;;;;;;;7.59;82.01;100225.23;233082;1174;115778;-65
2021/04/17 19:29:49;;;;;;;72.58;32.65;;;;;;;7.57;81.79;100216.66;233044;1167;115765;-66
2021/04/17 19:34:52;;;;;;;65.43;35.90;;;;;;;7.57;81.55;100221.95;232719;1174;116755;-67
2021/04/17 19:39:55;;;;;;;64.83;33.87;;;;;;;7.54;81.57;100217.05;233329;1175;115603;-66
2021/04/17 19:44:59;;;;;;;68.60;33.20;;;;;;;7.54;81.95;100211.75;233983;1175;115889;-65
2021/04/17 19:50:04;;;;;;;64.75;30.10;;;;;;;7.48;81.78;100213.37;232755;1167;115425;-64
2021/04/17 19:55:09;;;;;;;63.95;35.48;;;;;;;7.41;81.87;100213.36;233095;1175;115129;-66
2021/04/17 20:00:15;;;;;;;60.20;34.03;;;;;;;7.39;81.35;100203.97;232364;1176;116194;-65
2021/04/17 20:05:20;;;;;;;64.28;29.83;;;;;;;7.35;82.22;100197.43;232478;1175;115776;-64
2021/04/17 20:10:23;;;;;;;66.20;34.70;;;;;;;7.32;81.86;100187.25;232447;1174;115893;-63
2021/04/17 20:15:28;;;;;;;59.83;32.38;;;;;;;7.24;81.64;100161.74;233711;1175;115468;-64
2021/04/17 20:20:32;;;;;;;75.00;34.05;;;;;;;7.14;81.90;100168.45;233133;1174;115740;-67
2021/04/17 20:25:36;;;;;;;64.35;32.08;;;;;;;7.14;81.91;100169.27;232438;1174;116623;-66
2021/04/17 20:30:40;;;;;;;67.85;38.20;;;;;;;7.18;82.11;100174.98;233691;1176;116083;-63
2021/04/17 20:35:44;;;;;;;56.93;29.45;;;;;;;7.15;82.23;100185.98;233619;1174;117458;-66
2021/04/17 20:40:46;;;;;;;63.85;31.75;;;;;;;7.12;81.73;100191.69;232574;1174;116255;-66
2021/04/17 20:45:49;;;;;;;55.35;34.40;;;;;;;7.10;82.64;100192.70;233711;1174;116307;-67
2021/04/17 20:50:53;;;;;;;76.87;42.23;;;;;;;7.10;82.50;100203.31;235198;1174;116939;-66
2021/04/17 20:56:01;;;;;;;75.90;38.30;;;;;;;7.18;82.05;100204.15;235137;1174;115969;-65
2021/04/17 21:01:07;;;;;;;59.50;33.53;;;;;;;7.19;82.44;100203.95;234535;1176;115062;-66
2021/04/17 21:06:12;;;;;;;58.53;30.45;;;;;;;7.22;82.11;100202.73;234600;1174;118513;-64
2021/04/17 21:11:19;;;;;;;62.23;32.50;;;;;;;7.25;82.74;100200.50;233096;1174;118066;-63
2021/04/17 21:16:22;;;;;;;;;;;;;;;7.31;82.22;100199.70;233779;1174;116776;-66
2021/04/17 21:21:26;;;;;;;56.60;29.20;;;;;;;7.30;82.89;100190.11;234712;1174;104298;-65
2021/04/17 21:26:29;;;;;;;63.83;29.70;;;;;;;7.37;82.52;100200.70;232384;1174;116290;-65
2021/04/17 21:31:33;;;;;;;52.00;27.70;;;;;;;7.37;82.45;100198.05;232541;1174;116452;-65
2021/04/17 21:36:38;;;;;;;46.33;28.50;;;;;;;7.33;82.71;100196.84;233288;1171;118458;-67
2021/04/17 21:41:57;;;;;;;57.30;30.88;;;;;;;7.32;82.65;100197.86;232500;1175;116134;-68
2021/04/17 21:47:00;;;;;;;55.50;26.60;;;;;;;7.30;82.38;100206.02;233390;1174;116223;-67
2021/04/17 21:52:07;;;;;;;55.10;27.90;;;;;;;7.29;82.22;100206.22;232524;1174;118011;-67
2021/04/17 21:57:11;;;;;;;55.60;28.95;;;;;;;7.33;82.48;100202.97;232365;1170;116017;-70
2021/04/17 22:02:15;;;;;;;59.08;30.55;;;;;;;7.30;82.78;100202.55;232685;1176;115581;-70
2021/04/17 22:07:19;;;;;;;60.23;29.88;;;;;;;7.26;82.49;100202.13;232893;1176;115448;-68
2021/04/17 22:12:22;;;;;;;56.35;25.55;;;;;;;7.29;82.97;100203.56;232388;1175;115871;-69
2021/04/17 22:17:25;;;;;;;51.50;27.97;;;;;;;7.29;82.14;100198.27;232466;1170;115594;-70
2021/04/17 22:22:30;;;;;;;55.68;26.20;;;;;;;7.24;82.72;100196.21;233597;1175;115741;-67
2021/04/17 22:27:34;;;;;;;57.45;26.40;;;;;;;7.25;82.31;100199.68;233120;1174;116323;-67
2021/04/17 22:32:41;;;;;;;47.60;25.73;;;;;;;7.26;82.25;100193.36;232394;1174;115458;-68
2021/04/17 22:37:47;;;;;;;46.20;25.50;;;;;;;7.26;82.56;100190.70;233388;1167;115384;-66
2021/04/17 22:42:51;;;;;;;50.33;25.40;;;;;;;7.24;82.47;100198.86;233870;1175;115274;-66
2021/04/17 22:47:55;;;;;;;50.00;28.15;;;;;;;7.34;83.01;100201.09;234061;1174;116254;-67
2021/04/17 22:52:58;;;;;;;49.95;27.50;;;;;;;7.31;82.62;100193.58;233996;1176;115696;-68
2021/04/17 22:58:02;;;;;;;54.30;30.23;;;;;;;7.32;82.48;100181.95;234072;1176;116014;-67
2021/04/17 23:03:06;;;;;;;53.93;28.57;;;;;;;7.31;82.22;100180.31;233713;1176;116455;-68
2021/04/17 23:08:10;;;;;;;56.77;30.43;;;;;;;7.29;82.15;100185.00;234467;1177;116419;-67